createdAt,value
2022-10-06T00:01:13.342Z,0.70
2022-10-06T00:03:41.715Z,0.70
2022-10-06T00:06:12.255Z,0.90
2022-10-06T00:08:41.765Z,0.60
2022-10-06T00:11:10.430Z,0.80
2022-10-06T00:13:38.775Z,0.67
2022-10-06T00:16:12.578Z,0.70
2022-10-06T00:18:40.686Z,0.60
2022-10-06T00:21:08.669Z,0.70
2022-10-06T00:23:37.012Z,0.80
2022-10-06T00:26:05.350Z,0.60
2022-10-06T00:28:33.810Z,0.60
2022-10-06T00:31:03.012Z,0.80
2022-10-06T00:33:32.437Z,0.60
2022-10-06T00:36:00.965Z,0.70
2022-10-06T00:38:29.789Z,0.73
2022-10-06T00:40:58.176Z,0.50
2022-10-06T00:43:48.743Z,0.70
2022-10-06T00:46:23.621Z,0.87
2022-10-06T00:49:00.849Z,0.60
2022-10-06T00:51:32.361Z,0.60
2022-10-06T00:54:01.712Z,0.50
2022-10-06T00:56:29.892Z,0.70
2022-10-06T00:58:57.930Z,0.60
2022-10-06T01:01:27.233Z,0.60
2022-10-06T01:04:05.113Z,0.97
2022-10-06T01:06:46.223Z,0.73
2022-10-06T01:09:16.618Z,0.80
2022-10-06T01:11:45.774Z,0.60
2022-10-06T01:14:14.070Z,0.60
2022-10-06T01:16:45.778Z,0.70
2022-10-06T01:19:26.906Z,0.70
2022-10-06T01:21:56.145Z,0.70
2022-10-06T01:24:25.754Z,0.90
2022-10-06T01:26:54.645Z,0.87
2022-10-06T01:29:23.028Z,0.70
2022-10-06T01:31:51.243Z,0.70
2022-10-06T01:34:19.533Z,0.80
2022-10-06T01:36:47.528Z,0.50
2022-10-06T01:39:15.604Z,0.70
2022-10-06T01:41:47.633Z,0.87
2022-10-06T01:44:16.532Z,0.70
2022-10-06T01:46:44.558Z,0.60
2022-10-06T01:49:12.593Z,0.80
2022-10-06T01:51:40.863Z,0.80
2022-10-06T01:54:09.018Z,0.90
2022-10-06T01:56:37.061Z,1.00
2022-10-06T01:59:06.513Z,1.00
2022-10-06T02:01:35.843Z,0.83
2022-10-06T02:04:04.161Z,0.80
2022-10-06T02:06:32.562Z,0.80
2022-10-06T02:09:01.554Z,0.93
2022-10-06T02:11:30.235Z,0.90
2022-10-06T02:13:59.176Z,1.10
2022-10-06T02:16:28.711Z,1.10
2022-10-06T02:18:56.987Z,1.10
2022-10-06T02:21:25.447Z,1.00
2022-10-06T02:23:53.442Z,1.10
2022-10-06T02:26:21.499Z,0.97
2022-10-06T02:28:50.909Z,0.93
2022-10-06T02:31:22.793Z,1.10
2022-10-06T02:33:52.617Z,1.37
2022-10-06T02:36:22.550Z,1.10
2022-10-06T02:38:50.573Z,1.10
2022-10-06T02:41:19.262Z,1.27
2022-10-06T02:43:47.720Z,1.70
2022-10-06T02:46:16.722Z,1.20
2022-10-06T02:48:48.943Z,0.87
2022-10-06T02:51:19.814Z,1.30
2022-10-06T02:53:49.293Z,1.20
2022-10-06T02:56:20.583Z,1.10
2022-10-06T02:58:48.902Z,1.70
2022-10-06T03:01:26.531Z,1.23
2022-10-06T03:03:57.201Z,1.40
2022-10-06T03:06:28.270Z,1.50
2022-10-06T03:09:17.606Z,1.57
2022-10-06T03:11:45.974Z,1.60
2022-10-06T03:14:21.796Z,1.30
2022-10-06T03:16:51.520Z,1.50
2022-10-06T03:19:26.186Z,1.20
2022-10-06T03:21:56.440Z,1.23
2022-10-06T03:24:45.998Z,1.33
2022-10-06T03:27:14.094Z,1.50
2022-10-06T03:29:42.402Z,1.37
2022-10-06T03:32:10.443Z,1.20
2022-10-06T03:34:39.283Z,1.63
2022-10-06T03:37:11.442Z,1.50
2022-10-06T03:39:40.137Z,1.23
2022-10-06T03:42:08.291Z,1.53
2022-10-06T03:44:36.889Z,1.60
2022-10-06T03:47:05.990Z,1.40
2022-10-06T03:49:34.748Z,1.40
2022-10-06T03:52:02.774Z,1.50
2022-10-06T03:54:36.873Z,1.63
2022-10-06T03:57:05.119Z,1.40
2022-10-06T03:59:34.348Z,1.43
2022-10-06T04:02:05.438Z,1.60
2022-10-06T04:04:37.459Z,1.77
2022-10-06T04:07:10.866Z,1.30
2022-10-06T04:09:41.277Z,1.20
2022-10-06T04:12:11.117Z,1.40
2022-10-06T04:14:40.350Z,1.70
2022-10-06T04:17:09.463Z,1.57
2022-10-06T04:19:40.494Z,1.53
2022-10-06T04:22:08.997Z,1.70
2022-10-06T04:24:37.387Z,1.63
2022-10-06T04:27:33.078Z,1.53
2022-10-06T04:30:08.571Z,1.17
2022-10-06T04:32:36.998Z,2.20
2022-10-06T04:35:05.657Z,1.33
2022-10-06T04:37:34.048Z,1.27
2022-10-06T04:40:02.874Z,1.40
2022-10-06T04:42:35.203Z,1.07
2022-10-06T04:45:07.647Z,2.03
2022-10-06T04:47:37.047Z,2.00
2022-10-06T04:50:05.642Z,1.63
2022-10-06T04:52:33.890Z,1.30
2022-10-06T04:55:01.903Z,1.67
2022-10-06T04:57:30.197Z,2.17
2022-10-06T05:00:16.983Z,1.80
2022-10-06T05:02:47.243Z,1.57
2022-10-06T05:05:15.334Z,1.27
2022-10-06T05:07:44.984Z,1.97
2022-10-06T05:10:14.156Z,2.00
2022-10-06T05:12:42.257Z,1.83
2022-10-06T05:15:12.340Z,1.80
2022-10-06T05:17:40.790Z,1.77
2022-10-06T05:20:10.994Z,1.50
2022-10-06T05:22:39.361Z,1.37
2022-10-06T05:25:08.495Z,1.83
2022-10-06T05:27:36.636Z,1.30
2022-10-06T05:30:05.278Z,2.20
2022-10-06T05:32:36.213Z,1.80
2022-10-06T05:35:05.857Z,1.40
2022-10-06T05:37:34.136Z,1.90
2022-10-06T05:40:02.947Z,1.60
2022-10-06T05:42:31.197Z,1.80
2022-10-06T05:45:00.594Z,1.70
2022-10-06T05:47:28.696Z,1.73
2022-10-06T05:49:58.303Z,1.47
2022-10-06T05:52:26.345Z,2.00
2022-10-06T05:54:54.682Z,2.13
2022-10-06T05:57:22.835Z,1.60
2022-10-06T05:59:50.910Z,1.60
2022-10-06T06:02:19.197Z,1.70
2022-10-06T06:04:47.862Z,1.50
2022-10-06T06:07:17.265Z,2.30
2022-10-06T06:09:47.325Z,2.23
2022-10-06T06:12:16.543Z,2.17
2022-10-06T06:15:22.247Z,1.83
2022-10-06T06:17:56.867Z,1.70
2022-10-06T06:20:25.362Z,1.50
2022-10-06T06:22:55.054Z,1.73
2022-10-06T06:25:26.747Z,2.03
2022-10-06T06:27:56.278Z,1.93
2022-10-06T06:30:25.386Z,1.80
2022-10-06T06:33:00.096Z,1.73
2022-10-06T06:35:28.430Z,1.50
2022-10-06T06:37:59.430Z,1.67
2022-10-06T06:40:27.685Z,1.50
2022-10-06T06:42:55.953Z,1.47
2022-10-06T06:45:41.187Z,2.07
2022-10-06T06:48:35.902Z,1.70
2022-10-06T06:51:05.773Z,1.73
2022-10-06T06:53:35.830Z,2.00
2022-10-06T06:56:04.644Z,1.40
2022-10-06T06:58:34.344Z,2.10
2022-10-06T07:01:07.552Z,1.70
2022-10-06T07:03:56.701Z,1.70
2022-10-06T07:06:28.157Z,1.60
2022-10-06T07:08:59.866Z,1.90
2022-10-06T07:11:30.279Z,1.60
2022-10-06T07:14:01.418Z,2.27
2022-10-06T07:16:48.313Z,1.73
2022-10-06T07:19:35.186Z,1.87
2022-10-06T07:22:25.594Z,1.60
2022-10-06T07:25:11.309Z,1.90
2022-10-06T07:27:44.585Z,1.60
2022-10-06T07:30:19.241Z,2.00
2022-10-06T07:32:52.818Z,1.47
2022-10-06T07:35:24.499Z,1.50
2022-10-06T07:37:54.113Z,1.43
2022-10-06T07:40:25.483Z,1.60
2022-10-06T07:42:53.505Z,2.10
2022-10-06T07:45:45.545Z,1.77
2022-10-06T07:48:27.674Z,1.80
2022-10-06T07:50:59.202Z,1.83
2022-10-06T07:53:31.477Z,2.00
2022-10-06T07:56:11.077Z,1.97
2022-10-06T07:58:44.190Z,1.70
2022-10-06T08:01:13.822Z,1.60
2022-10-06T08:03:43.482Z,1.87
2022-10-06T08:06:16.043Z,2.10
2022-10-06T08:08:49.093Z,1.73
2022-10-06T08:11:23.613Z,1.83
2022-10-06T08:13:52.731Z,1.70
2022-10-06T08:16:22.799Z,1.70
2022-10-06T08:18:53.215Z,1.77
2022-10-06T08:21:22.949Z,1.90
2022-10-06T08:23:52.039Z,1.67
2022-10-06T08:26:22.749Z,1.77
2022-10-06T08:28:52.415Z,1.20
2022-10-06T08:31:22.429Z,2.00
2022-10-06T08:33:54.519Z,2.03
2022-10-06T08:36:24.966Z,1.60
2022-10-06T08:38:56.361Z,1.50
2022-10-06T08:41:29.112Z,1.70
2022-10-06T08:44:02.644Z,2.60
2022-10-06T08:46:36.981Z,2.07
2022-10-06T08:49:05.719Z,2.20
2022-10-06T08:51:50.308Z,1.63
2022-10-06T08:54:29.453Z,2.00
2022-10-06T08:57:05.581Z,2.10
2022-10-06T08:59:35.838Z,2.23
2022-10-06T09:02:05.753Z,1.90
2022-10-06T09:04:34.224Z,2.27
2022-10-06T09:07:09.206Z,1.67
2022-10-06T09:09:58.554Z,2.00
2022-10-06T09:12:33.564Z,1.50
2022-10-06T09:15:13.136Z,1.90
2022-10-06T09:17:47.362Z,1.93
2022-10-06T09:20:20.667Z,2.30
2022-10-06T09:22:51.270Z,1.90
2022-10-06T09:25:21.948Z,1.83
2022-10-06T09:27:55.396Z,1.80
2022-10-06T09:30:24.709Z,1.70
2022-10-06T09:32:59.211Z,1.67
2022-10-06T09:35:29.349Z,2.27
2022-10-06T09:38:07.862Z,1.60
2022-10-06T09:40:48.593Z,1.83
2022-10-06T09:43:25.888Z,2.07
2022-10-06T09:45:54.734Z,1.93
2022-10-06T09:48:25.204Z,1.70
2022-10-06T09:51:13.737Z,1.70
2022-10-06T09:53:42.001Z,2.67
2022-10-06T09:56:18.704Z,1.87
2022-10-06T09:59:00.453Z,1.80
2022-10-06T10:01:31.715Z,1.77
2022-10-06T10:04:21.001Z,2.37
2022-10-06T10:06:50.065Z,1.70
2022-10-06T10:09:27.164Z,1.70
2022-10-06T10:12:32.059Z,2.30
2022-10-06T10:15:04.176Z,2.27
2022-10-06T10:17:43.706Z,1.57
2022-10-06T10:20:27.885Z,2.13
2022-10-06T10:22:58.392Z,1.80
2022-10-06T10:25:41.374Z,2.33
2022-10-06T10:28:21.767Z,2.03
2022-10-06T10:31:00.318Z,1.83
2022-10-06T10:33:46.173Z,1.67
2022-10-06T10:36:28.612Z,1.83
2022-10-06T10:38:56.999Z,1.70
2022-10-06T10:41:29.402Z,1.80
2022-10-06T10:44:06.552Z,1.80
2022-10-06T10:46:41.341Z,1.70
2022-10-06T10:49:14.686Z,1.80
2022-10-06T10:51:46.832Z,1.50
2022-10-06T10:54:18.761Z,1.77
2022-10-06T10:56:49.087Z,1.47
2022-10-06T10:59:21.346Z,1.80
2022-10-06T11:01:56.276Z,1.70
2022-10-06T11:04:24.782Z,1.60
2022-10-06T11:07:13.739Z,1.20
2022-10-06T11:09:48.585Z,1.40
2022-10-06T11:12:28.017Z,1.60
2022-10-06T11:14:59.871Z,1.43
2022-10-06T11:17:51.266Z,1.20
2022-10-06T11:20:37.799Z,1.40
2022-10-06T11:23:25.102Z,1.23
2022-10-06T11:26:09.770Z,1.50
2022-10-06T11:28:45.184Z,1.53
2022-10-06T11:31:26.125Z,1.50
2022-10-06T11:33:57.018Z,1.53
2022-10-06T11:36:35.589Z,1.77
2022-10-06T11:39:12.259Z,1.37
2022-10-06T11:41:46.817Z,1.57
2022-10-06T11:44:20.330Z,1.70
2022-10-06T11:46:54.118Z,1.70
2022-10-06T11:49:52.181Z,1.37
2022-10-06T11:52:44.258Z,1.30
2022-10-06T11:55:23.960Z,1.60
2022-10-06T11:58:30.270Z,1.57
2022-10-06T12:01:02.118Z,1.50
2022-10-06T12:03:47.994Z,1.70
2022-10-06T12:06:58.453Z,1.47
2022-10-06T12:10:15.084Z,1.70
2022-10-06T12:13:07.126Z,2.03
2022-10-06T12:19:03.463Z,1.60
2022-10-06T12:21:45.759Z,1.07
2022-10-06T12:24:31.287Z,1.43
2022-10-06T12:27:37.229Z,1.37
2022-10-06T12:30:21.187Z,1.40
2022-10-06T12:32:54.943Z,1.30
2022-10-06T12:35:34.087Z,1.30
2022-10-06T12:38:05.847Z,1.60
2022-10-06T12:40:54.470Z,1.43
2022-10-06T12:43:35.059Z,1.17
2022-10-06T12:46:12.562Z,1.40
2022-10-06T12:48:45.931Z,1.27
2022-10-06T12:51:30.379Z,1.43
2022-10-06T12:54:09.020Z,1.23
2022-10-06T12:56:39.154Z,1.30
2022-10-06T12:59:25.381Z,1.50
2022-10-06T13:01:57.972Z,1.83
2022-10-06T13:04:35.114Z,1.50
2022-10-06T13:07:09.751Z,1.13
2022-10-06T13:09:38.270Z,1.33
2022-10-06T13:12:24.477Z,1.10
2022-10-06T13:15:23.374Z,1.20
2022-10-06T13:17:55.310Z,0.93
2022-10-06T13:20:37.382Z,1.50
2022-10-06T13:23:23.954Z,1.30
2022-10-06T13:25:55.859Z,1.77
2022-10-06T13:28:40.424Z,1.40
2022-10-06T13:31:19.602Z,1.70
2022-10-06T13:33:51.546Z,1.30
2022-10-06T13:36:20.675Z,1.40
2022-10-06T13:38:48.725Z,1.60
2022-10-06T13:41:25.464Z,1.50
2022-10-06T13:43:56.782Z,1.37
2022-10-06T13:46:27.860Z,1.23
2022-10-06T13:49:00.818Z,1.40
2022-10-06T13:51:31.193Z,1.23
2022-10-06T13:54:01.227Z,1.60
2022-10-06T13:56:37.852Z,1.40
2022-10-06T13:59:30.559Z,1.20
2022-10-06T14:02:00.832Z,1.23
2022-10-06T14:04:34.652Z,0.90
2022-10-06T14:07:05.694Z,1.60
2022-10-06T14:09:34.855Z,1.37
2022-10-06T14:12:06.291Z,1.30
2022-10-06T14:14:34.696Z,1.50
2022-10-06T14:17:02.777Z,1.10
2022-10-06T14:19:35.348Z,1.10
2022-10-06T14:22:04.929Z,1.10
2022-10-06T14:24:37.210Z,1.33
2022-10-06T14:27:06.859Z,1.13
2022-10-06T14:29:37.770Z,1.50
2022-10-06T14:32:15.277Z,1.20
2022-10-06T14:34:45.242Z,0.97
2022-10-06T14:37:15.143Z,1.27
2022-10-06T14:39:44.210Z,1.00
2022-10-06T14:42:14.394Z,0.97
2022-10-06T14:44:43.242Z,1.27
2022-10-06T14:47:11.599Z,1.23
2022-10-06T14:49:40.459Z,0.90
2022-10-06T14:52:10.601Z,1.50
2022-10-06T14:54:38.881Z,1.40
2022-10-06T14:57:07.035Z,0.90
2022-10-06T14:59:35.180Z,1.07
2022-10-06T15:02:04.603Z,1.27
2022-10-06T15:04:32.602Z,1.10
2022-10-06T15:07:18.109Z,1.17
2022-10-06T15:09:47.564Z,1.03
2022-10-06T15:12:15.662Z,1.10
2022-10-06T15:14:43.707Z,1.10
2022-10-06T15:17:11.920Z,1.30
2022-10-06T15:19:40.346Z,1.33
2022-10-06T15:22:10.086Z,1.03
2022-10-06T15:24:38.607Z,1.57
2022-10-06T15:27:26.084Z,1.50
2022-10-06T15:29:54.233Z,0.90
2022-10-06T15:32:22.480Z,1.17
2022-10-06T15:34:52.807Z,1.00
2022-10-06T15:37:21.058Z,1.13
2022-10-06T15:39:49.155Z,1.20
2022-10-06T15:42:21.574Z,1.13
2022-10-06T15:44:50.041Z,0.90
2022-10-06T15:47:18.456Z,1.30
2022-10-06T15:49:46.987Z,1.00
2022-10-06T15:52:14.982Z,1.47
2022-10-06T15:54:43.717Z,1.20
2022-10-06T15:57:20.318Z,1.37
2022-10-06T15:59:50.041Z,1.80
2022-10-06T16:02:19.869Z,1.37
2022-10-06T16:05:18.699Z,1.27
2022-10-06T16:07:46.809Z,1.50
2022-10-06T16:10:14.998Z,1.53
2022-10-06T16:12:42.988Z,1.30
2022-10-06T16:15:12.577Z,1.50
2022-10-06T16:17:41.710Z,1.80
2022-10-06T16:20:11.508Z,2.00
2022-10-06T16:22:39.789Z,2.60
2022-10-06T16:25:08.589Z,4.03
2022-10-06T16:27:36.586Z,6.73
2022-10-06T16:30:05.229Z,5.30
2022-10-06T16:32:34.772Z,5.93
2022-10-06T16:35:02.773Z,4.40
2022-10-06T16:37:30.760Z,4.37
2022-10-06T16:39:58.794Z,3.00
2022-10-06T16:42:27.133Z,2.30
2022-10-06T16:44:55.122Z,1.73
2022-10-06T16:47:23.110Z,1.67
2022-10-06T16:49:52.447Z,1.10
2022-10-06T16:52:20.434Z,1.30
2022-10-06T16:54:48.450Z,1.20
2022-10-06T16:57:16.445Z,1.40
2022-10-06T16:59:46.798Z,1.40
2022-10-06T17:02:15.190Z,1.30
2022-10-06T17:04:43.361Z,1.70
2022-10-06T17:07:12.694Z,1.90
2022-10-06T17:09:51.113Z,1.90
2022-10-06T17:12:29.725Z,1.73
2022-10-06T17:14:57.709Z,1.67
2022-10-06T17:17:25.718Z,1.70
2022-10-06T17:19:54.070Z,1.63
2022-10-06T17:22:23.399Z,2.00
2022-10-06T17:24:51.386Z,1.90
2022-10-06T17:27:19.387Z,1.73
2022-10-06T17:29:47.387Z,1.60
2022-10-06T17:32:15.517Z,2.30
2022-10-06T17:34:43.526Z,1.90
2022-10-06T17:37:11.569Z,1.80
2022-10-06T17:39:46.167Z,1.83
2022-10-06T17:42:16.141Z,2.00
2022-10-06T17:44:44.721Z,1.87
2022-10-06T17:47:12.838Z,1.70
2022-10-06T17:49:40.812Z,2.10
2022-10-06T17:52:08.801Z,1.90
2022-10-06T17:54:36.819Z,1.50
2022-10-06T17:57:06.319Z,1.70
2022-10-06T17:59:34.360Z,1.80
2022-10-06T18:02:05.625Z,1.77
2022-10-06T18:04:35.245Z,1.50
2022-10-06T18:07:03.802Z,1.60
2022-10-06T18:09:31.858Z,1.70
2022-10-06T18:12:00.065Z,1.60
2022-10-06T18:14:33.220Z,1.80
2022-10-06T18:17:03.794Z,1.90
2022-10-06T18:19:34.291Z,2.30
2022-10-06T18:22:06.815Z,2.37
2022-10-06T18:24:34.858Z,2.63
2022-10-06T18:27:02.908Z,2.77
2022-10-06T18:29:33.868Z,3.00
2022-10-06T18:32:40.557Z,2.50
2022-10-06T18:37:38.559Z,3.00
2022-10-06T18:44:54.327Z,2.60
2022-10-06T18:47:40.069Z,2.97
2022-10-06T18:50:08.759Z,2.30
2022-10-06T18:52:36.773Z,2.07
2022-10-06T18:55:05.074Z,2.00
2022-10-06T18:57:33.336Z,1.80
2022-10-06T19:00:02.742Z,2.23
2022-10-06T19:02:32.265Z,2.00
2022-10-06T19:05:00.378Z,1.97
2022-10-06T19:07:29.142Z,1.90
2022-10-06T19:09:57.255Z,2.10
2022-10-06T19:12:25.349Z,1.90
2022-10-06T19:14:53.384Z,1.53
2022-10-06T19:17:24.325Z,1.80
2022-10-06T19:19:52.389Z,1.70
2022-10-06T19:22:21.548Z,1.90
2022-10-06T19:24:49.545Z,1.87
2022-10-06T19:27:20.658Z,1.70
2022-10-06T19:29:53.158Z,2.27
2022-10-06T19:32:24.249Z,2.67
2022-10-06T19:34:52.441Z,2.83
2022-10-06T19:37:20.522Z,2.10
2022-10-06T19:39:50.214Z,1.93
2022-10-06T19:42:37.093Z,2.70
2022-10-06T19:45:06.007Z,2.33
2022-10-06T19:47:35.442Z,2.00
2022-10-06T19:50:08.747Z,1.97
2022-10-06T19:52:38.684Z,1.87
2022-10-06T19:55:07.219Z,1.80
2022-10-06T19:57:35.308Z,2.03
2022-10-06T20:00:03.594Z,1.43
2022-10-06T20:02:43.294Z,1.50
2022-10-06T20:05:12.765Z,1.60
2022-10-06T20:07:41.593Z,1.53
2022-10-06T20:10:11.716Z,2.07
2022-10-06T20:12:41.247Z,1.83
2022-10-06T20:15:10.750Z,1.93
2022-10-06T20:17:39.280Z,1.83
2022-10-06T20:20:09.406Z,1.63
2022-10-06T20:22:37.554Z,1.93
2022-10-06T20:25:07.227Z,1.93
2022-10-06T20:27:35.334Z,1.93
2022-10-06T20:30:03.784Z,2.00
2022-10-06T20:32:31.775Z,1.50
2022-10-06T20:35:00.083Z,1.70
2022-10-06T20:37:29.573Z,1.67
2022-10-06T20:40:15.089Z,1.80
2022-10-06T20:42:47.158Z,1.90
2022-10-06T20:45:15.242Z,2.13
2022-10-06T20:47:43.452Z,1.67
2022-10-06T20:50:11.596Z,2.10
2022-10-06T20:52:40.983Z,2.00
2022-10-06T20:55:09.479Z,2.00
2022-10-06T20:57:37.658Z,1.70
2022-10-06T21:00:07.390Z,1.90
2022-10-06T21:02:35.531Z,1.67
2022-10-06T21:05:03.696Z,2.10
2022-10-06T21:07:31.716Z,1.70
2022-10-06T21:10:01.084Z,1.63
2022-10-06T21:12:29.104Z,2.00
2022-10-06T21:14:57.519Z,2.10
2022-10-06T21:17:25.632Z,1.80
2022-10-06T21:19:53.622Z,1.63
2022-10-06T21:22:21.615Z,1.93
2022-10-06T21:24:49.576Z,1.70
2022-10-06T21:27:19.076Z,1.73
2022-10-06T21:29:47.664Z,1.63
2022-10-06T21:32:15.677Z,2.43
2022-10-06T21:34:43.729Z,2.07
2022-10-06T21:37:13.536Z,1.80
2022-10-06T21:39:42.097Z,1.80
2022-10-06T21:42:10.109Z,1.53
2022-10-06T21:44:39.438Z,1.90
2022-10-06T21:47:07.559Z,2.20
2022-10-06T21:49:35.564Z,2.10
2022-10-06T21:52:05.379Z,1.50
2022-10-06T21:54:33.713Z,1.90
2022-10-06T21:57:01.905Z,1.90
2022-10-06T21:59:29.894Z,1.80
2022-10-06T22:01:59.512Z,1.80
2022-10-06T22:04:27.626Z,2.00
2022-10-06T22:06:55.574Z,1.80
2022-10-06T22:09:23.750Z,1.60
2022-10-06T22:11:51.733Z,1.60
2022-10-06T22:14:21.088Z,2.10
2022-10-06T22:16:49.175Z,1.83
2022-10-06T22:19:19.108Z,1.63
2022-10-06T22:21:48.706Z,1.80
2022-10-06T22:24:18.893Z,1.60
2022-10-06T22:26:47.461Z,1.67
2022-10-06T22:29:17.301Z,1.70
2022-10-06T22:31:47.120Z,1.80
2022-10-06T22:34:19.232Z,1.83
2022-10-06T22:36:47.389Z,1.90
2022-10-06T22:39:15.618Z,1.97
2022-10-06T22:41:43.983Z,1.90
2022-10-06T22:44:12.028Z,1.90
2022-10-06T22:46:40.077Z,2.00
2022-10-06T22:49:08.125Z,1.67
2022-10-06T22:51:37.468Z,1.60
2022-10-06T22:54:05.818Z,2.13
2022-10-06T22:56:34.911Z,1.70
2022-10-06T22:59:03.535Z,2.07
2022-10-06T23:01:31.842Z,2.07
2022-10-06T23:03:59.888Z,2.33
2022-10-06T23:06:29.688Z,1.67
2022-10-06T23:08:59.348Z,1.90
2022-10-06T23:11:27.369Z,1.70
2022-10-06T23:13:55.505Z,1.90
2022-10-06T23:16:23.890Z,1.70
2022-10-06T23:18:52.096Z,1.60
2022-10-06T23:21:22.620Z,1.70
2022-10-06T23:23:52.636Z,2.03
2022-10-06T23:26:23.195Z,1.67
2022-10-06T23:28:56.196Z,1.73
2022-10-06T23:31:25.042Z,2.00
2022-10-06T23:33:53.449Z,2.17
2022-10-06T23:36:21.700Z,2.30
2022-10-06T23:38:49.729Z,1.90
2022-10-06T23:41:17.808Z,2.00
2022-10-06T23:43:47.272Z,1.77
2022-10-06T23:46:15.766Z,1.90
2022-10-06T23:48:44.108Z,1.97
2022-10-06T23:51:14.003Z,2.10
2022-10-06T23:53:42.943Z,2.23
2022-10-06T23:56:12.043Z,2.10
2022-10-06T23:58:41.614Z,1.57
